Time,TemperatureF,DewpointF,PressureIn,WindDirection,WindDirectionDegrees,WindSpeedMPH,WindSpeedGustMPH,Humidity,HourlyPrecipIn,Conditions,Clouds,dailyrainin,SoftwareType,DateUTC
2013-05-03 00:03:00,64.7,55.5,30.18,SW,226,0.0,0.0,72,0.00,CLR,,0.00,WeatherDisplay:10.37,2013-05-03 05:03:00,
2013-05-03 00:08:00,64.5,55.3,30.18,SW,226,0.0,0.0,72,0.00,CLR,,0.00,WeatherDisplay:10.37,2013-05-03 05:08:00,
2013-05-03 00:13:00,64.2,55.4,30.17,SW,226,0.0,0.0,73,0.00,CLR,,0.00,WeatherDisplay:10.37,2013-05-03 05:13:00,
2013-05-03 00:18:00,63.9,55.4,30.17,SW,226,0.0,0.0,74,0.00,CLR,,0.00,WeatherDisplay:10.37,2013-05-03 05:18:00,
2013-05-03 00:23:00,63.5,55.4,30.17,SW,226,0.0,0.0,75,0.00,CLR,,0.00,WeatherDisplay:10.37,2013-05-03 05:23:00,
2013-05-03 00:28:00,63.1,55.4,30.17,SW,226,0.0,0.0,76,0.00,CLR,,0.00,WeatherDisplay:10.37,2013-05-03 05:28:00,
2013-05-03 00:33:00,62.7,55.0,30.17,SW,227,0.0,0.0,76,0.00,CLR,,0.00,WeatherDisplay:10.37,2013-05-03 05:33:00,
2013-05-03 00:38:00,62.7,54.7,30.18,NNW,337,1.0,0.0,75,0.00,CLR,,0.00,WeatherDisplay:10.37,2013-05-03 05:38:00,
2013-05-03 00:43:00,62.9,53.7,30.18,WSW,246,4.0,4.0,72,0.00,CLR,,0.00,WeatherDisplay:10.37,2013-05-03 05:43:00,
2013-05-03 00:48:00,63.4,53.8,30.18,WSW,242,0.0,0.0,71,0.00,CLR,,0.00,WeatherDisplay:10.37,2013-05-03 05:48:00,
2013-05-03 00:53:00,63.7,54.1,30.18,NW,304,1.1,0.0,71,0.00,CLR,,0.00,WeatherDisplay:10.37,2013-05-03 05:53:00,
2013-05-03 00:58:00,63.9,54.3,30.17,WSW,242,0.0,0.0,71,0.00,CLR,,0.00,WeatherDisplay:10.37,2013-05-03 05:58:00,
2013-05-03 01:03:00,64.0,54.4,30.17,WSW,242,0.0,0.0,71,0.00,CLR,,0.00,WeatherDisplay:10.37,2013-05-03 06:03:00,
2013-05-03 01:08:00,64.0,54.0,30.17,WSW,242,1.0,0.0,70,0.00,CLR,,0.00,WeatherDisplay:10.37,2013-05-03 06:08:00,
2013-05-03 01:13:00,64.0,54.0,30.17,WSW,242,0.0,0.0,70,0.00,CLR,,0.00,WeatherDisplay:10.37,2013-05-03 06:13:00,
2013-05-03 01:18:00,64.2,54.2,30.17,WSW,240,0.0,0.0,70,0.00,CLR,,0.00,WeatherDisplay:10.37,2013-05-03 06:18:00,
2013-05-03 01:23:00,64.2,54.2,30.17,WSW,240,0.0,0.0,70,0.00,CLR,,0.00,WeatherDisplay:10.37,2013-05-03 06:23:00,
2013-05-03 01:28:00,64.2,54.6,30.16,WSW,240,0.0,0.0,71,0.00,CLR,,0.00,WeatherDisplay:10.37,2013-05-03 06:28:00,
2013-05-03 01:33:00,64.3,54.3,30.16,WSW,242,2.3,2.3,70,0.00,CLR,,0.00,WeatherDisplay:10.37,2013-05-03 06:33:00,
2013-05-03 01:38:00,64.3,54.3,30.16,WSW,242,1.1,1.1,70,0.00,CLR,,0.00,WeatherDisplay:10.37,2013-05-03 06:38:00,
2013-05-03 01:43:00,64.3,53.9,30.16,SW,232,1.1,1.1,69,0.00,CLR,,0.00,WeatherDisplay:10.37,2013-05-03 06:43:00,
2013-05-03 01:48:00,64.3,54.3,30.15,SW,232,0.0,0.0,70,0.00,CLR,,0.00,WeatherDisplay:10.37,2013-05-03 06:48:00,
2013-05-03 01:53:00,64.2,54.2,30.15,SW,232,1.1,1.1,70,0.00,CLR,,0.00,WeatherDisplay:10.37,2013-05-03 06:53:00,
2013-05-03 01:58:00,64.2,54.2,30.14,SW,235,0.0,0.0,70,0.00,CLR,,0.00,WeatherDisplay:10.37,2013-05-03 06:58:00,
2013-05-03 02:03:00,63.9,54.7,30.14,SW,235,0.0,0.0,72,0.00,CLR,,0.00,WeatherDisplay:10.37,2013-05-03 07:03:00,
2013-05-03 02:08:00,63.7,54.1,30.14,SW,235,0.0,0.0,71,0.00,CLR,,0.00,WeatherDisplay:10.37,2013-05-03 07:08:00,
2013-05-03 02:13:00,63.5,54.3,30.14,SW,235,0.0,0.0,72,0.00,CLR,,0.00,WeatherDisplay:10.37,2013-05-03 07:13:00,
2013-05-03 02:18:00,63.4,54.6,30.13,SW,235,0.0,0.0,73,0.00,CLR,,0.00,WeatherDisplay:10.37,2013-05-03 07:18:00,
2013-05-03 02:23:00,63.2,54.8,30.13,SW,235,0.0,0.0,74,0.00,CLR,,0.00,WeatherDisplay:10.37,2013-05-03 07:23:00,
2013-05-03 02:28:00,62.9,54.9,30.13,SW,235,0.0,0.0,75,0.00,CLR,,0.00,WeatherDisplay:10.37,2013-05-03 07:28:00,
2013-05-03 02:33:00,62.7,54.7,30.13,SW,235,0.0,0.0,75,0.00,CLR,,0.00,WeatherDisplay:10.37,2013-05-03 07:33:00,
2013-05-03 02:38:00,62.4,54.7,30.13,SW,235,0.0,0.0,76,0.00,CLR,,0.00,WeatherDisplay:10.37,2013-05-03 07:38:00,
2013-05-03 02:43:00,62.3,54.6,30.13,SW,235,0.0,0.0,76,0.00,CLR,,0.00,WeatherDisplay:10.37,2013-05-03 07:43:00,
2013-05-03 02:48:00,62.0,54.7,30.13,SW,235,0.0,0.0,77,0.00,CLR,,0.00,WeatherDisplay:10.37,2013-05-03 07:48:00,
2013-05-03 02:53:00,61.8,54.9,30.13,WSW,237,0.0,0.0,78,0.00,CLR,,0.00,WeatherDisplay:10.37,2013-05-03 07:53:00,
2013-05-03 02:58:00,61.6,54.7,30.13,SW,236,0.0,0.0,78,0.00,CLR,,0.00,WeatherDisplay:10.37,2013-05-03 07:58:00,
2013-05-03 03:03:00,61.6,54.3,30.13,WSW,237,0.0,0.1,77,0.00,CLR,,0.00,WeatherDisplay:10.37,2013-05-03 08:03:00,
2013-05-03 03:08:00,61.8,54.2,30.13,WSW,252,0.0,0.0,76,0.00,CLR,,0.00,WeatherDisplay:10.37,2013-05-03 08:08:00,
2013-05-03 03:13:00,62.3,54.3,30.13,South,182,0.0,0.0,75,0.00,CLR,,0.00,WeatherDisplay:10.37,2013-05-03 08:13:00,
2013-05-03 03:18:00,62.6,54.2,30.13,South,180,0.0,0.0,74,0.00,CLR,,0.00,WeatherDisplay:10.37,2013-05-03 08:18:00,
2013-05-03 03:23:00,62.7,54.3,30.13,South,180,0.0,0.0,74,0.00,CLR,,0.00,WeatherDisplay:10.37,2013-05-03 08:23:00,
2013-05-03 03:28:00,62.9,54.5,30.13,SSW,204,1.1,0.0,74,0.00,CLR,,0.00,WeatherDisplay:10.37,2013-05-03 08:28:00,
2013-05-03 03:33:00,62.9,54.9,30.13,SSW,204,0.0,0.0,75,0.00,CLR,,0.00,WeatherDisplay:10.37,2013-05-03 08:33:00,
2013-05-03 03:38:00,62.9,54.9,30.13,WSW,244,3.5,3.5,75,0.00,CLR,,0.00,WeatherDisplay:10.37,2013-05-03 08:38:00,
2013-05-03 03:43:00,63.1,54.3,30.13,WSW,244,0.0,0.0,73,0.00,CLR,,0.00,WeatherDisplay:10.37,2013-05-03 08:43:00,
2013-05-03 03:48:00,63.2,54.4,30.13,WSW,244,0.0,0.0,73,0.00,CLR,,0.00,WeatherDisplay:10.37,2013-05-03 08:48:00,
2013-05-03 03:53:00,63.2,54.4,30.13,NNW,328,0.0,0.0,73,0.00,CLR,,0.00,WeatherDisplay:10.37,2013-05-03 08:53:00,
2013-05-03 03:58:00,63.4,54.6,30.13,NNW,329,0.0,0.0,73,0.00,CLR,,0.00,WeatherDisplay:10.37,2013-05-03 08:58:00,
2013-05-03 04:03:00,63.4,55.0,30.13,SW,223,3.5,0.0,74,0.00,CLR,,0.00,WeatherDisplay:10.37,2013-05-03 09:03:00,
2013-05-03 04:08:00,63.2,54.4,30.12,SW,227,0.0,0.0,73,0.00,CLR,,0.00,WeatherDisplay:10.37,2013-05-03 09:08:00,
2013-05-03 04:13:00,63.1,54.7,30.12,SW,228,0.0,0.0,74,0.00,CLR,,0.00,WeatherDisplay:10.37,2013-05-03 09:13:00,
2013-05-03 04:18:00,62.9,54.9,30.12,SW,234,2.0,2.0,75,0.00,CLR,,0.00,WeatherDisplay:10.37,2013-05-03 09:18:00,
2013-05-03 04:23:00,62.7,54.7,30.12,WSW,256,1.1,0.0,75,0.00,CLR,,0.00,WeatherDisplay:10.37,2013-05-03 09:23:00,
2013-05-03 04:28:00,62.6,54.6,30.12,WSW,256,1.1,1.1,75,0.00,CLR,,0.00,WeatherDisplay:10.37,2013-05-03 09:28:00,
2013-05-03 04:33:00,62.4,54.7,30.12,WSW,256,0.0,0.0,76,0.00,CLR,,0.00,WeatherDisplay:10.37,2013-05-03 09:33:00,
2013-05-03 04:38:00,62.1,54.8,30.13,WSW,256,0.0,0.0,77,0.00,CLR,,0.00,WeatherDisplay:10.37,2013-05-03 09:38:00,
2013-05-03 04:43:00,61.8,55.2,30.12,WSW,256,0.0,0.0,79,0.00,CLR,,0.00,WeatherDisplay:10.37,2013-05-03 09:43:00,
2013-05-03 04:48:00,61.5,54.9,30.13,WSW,256,0.0,0.0,79,0.00,CLR,,0.00,WeatherDisplay:10.37,2013-05-03 09:48:00,
2013-05-03 04:53:00,61.3,54.7,30.13,SW,216,4.6,4.6,79,0.00,CLR,,0.00,WeatherDisplay:10.37,2013-05-03 09:53:00,
2013-05-03 04:58:00,61.5,54.6,30.13,SW,222,1.1,0.0,78,0.00,CLR,,0.00,WeatherDisplay:10.37,2013-05-03 09:58:00,
2013-05-03 05:03:00,61.5,54.6,30.12,SW,222,0.0,0.0,78,0.00,CLR,,0.00,WeatherDisplay:10.37,2013-05-03 10:03:00,
2013-05-03 05:08:00,61.3,54.7,30.13,SW,222,0.0,0.0,79,0.00,CLR,,0.00,WeatherDisplay:10.37,2013-05-03 10:08:00,
2013-05-03 05:13:00,61.3,54.4,30.13,West,267,0.0,0.0,78,0.00,CLR,,0.00,WeatherDisplay:10.37,2013-05-03 10:13:00,
2013-05-03 05:18:00,61.5,54.6,30.13,West,267,0.0,0.0,78,0.00,CLR,,0.00,WeatherDisplay:10.37,2013-05-03 10:18:00,
2013-05-03 05:23:00,61.5,54.6,30.13,West,266,0.0,0.0,78,0.00,CLR,,0.00,WeatherDisplay:10.37,2013-05-03 10:23:00,
2013-05-03 05:28:00,61.6,54.3,30.13,WSW,251,0.0,0.0,77,0.00,CLR,,0.00,WeatherDisplay:10.37,2013-05-03 10:28:00,
2013-05-03 05:33:00,61.8,54.5,30.13,WSW,255,0.0,0.0,77,0.00,CLR,,0.00,WeatherDisplay:10.37,2013-05-03 10:33:00,
2013-05-03 05:38:00,62.0,55.1,30.13,WSW,255,0.0,0.0,78,0.00,CLR,,0.00,WeatherDisplay:10.37,2013-05-03 10:38:00,
2013-05-03 05:43:00,62.0,54.7,30.13,WSW,255,0.0,0.0,77,0.00,CLR,,0.00,WeatherDisplay:10.37,2013-05-03 10:43:00,
2013-05-03 05:48:00,62.1,54.4,30.13,SW,221,1.1,0.0,76,0.00,CLR,,0.00,WeatherDisplay:10.37,2013-05-03 10:48:00,
2013-05-03 05:53:00,62.3,55.0,30.13,SW,221,0.0,0.0,77,0.00,CLR,,0.00,WeatherDisplay:10.37,2013-05-03 10:53:00,
2013-05-03 05:58:00,62.3,54.6,30.13,SW,224,1.1,0.0,76,0.00,CLR,,0.00,WeatherDisplay:10.37,2013-05-03 10:58:00,
2013-05-03 06:03:00,62.4,55.1,30.13,SW,224,0.0,0.0,77,0.00,CLR,,0.00,WeatherDisplay:10.37,2013-05-03 11:03:00,
2013-05-03 06:08:00,62.4,54.4,30.13,SW,229,0.0,0.0,75,0.00,CLR,,0.00,WeatherDisplay:10.37,2013-05-03 11:08:00,
2013-05-03 06:13:00,62.6,54.6,30.13,SW,216,0.0,0.0,75,0.00,CLR,,0.00,WeatherDisplay:10.37,2013-05-03 11:13:00,
2013-05-03 06:18:00,62.7,54.7,30.13,SW,216,0.0,0.0,75,0.00,CLR,,0.00,WeatherDisplay:10.37,2013-05-03 11:18:00,
2013-05-03 06:23:00,62.7,54.7,30.13,SW,216,0.0,0.0,75,0.00,CLR,,0.00,WeatherDisplay:10.37,2013-05-03 11:23:00,
2013-05-03 06:28:00,62.9,54.5,30.13,SW,232,1.1,0.0,74,0.00,CLR,,0.00,WeatherDisplay:10.37,2013-05-03 11:28:00,
2013-05-03 06:33:00,62.9,54.5,30.13,SW,232,3.5,0.0,74,0.00,CLR,,0.00,WeatherDisplay:10.37,2013-05-03 11:33:00,
2013-05-03 06:38:00,63.1,54.7,30.13,SW,231,0.0,0.5,74,0.00,CLR,,0.00,WeatherDisplay:10.37,2013-05-03 11:38:00,
2013-05-03 06:43:00,63.2,54.4,30.13,West,268,0.0,0.0,73,0.00,CLR,,0.00,WeatherDisplay:10.37,2013-05-03 11:43:00,
2013-05-03 06:48:00,63.2,54.4,30.13,West,268,0.0,0.0,73,0.00,CLR,,0.00,WeatherDisplay:10.37,2013-05-03 11:48:00,
2013-05-03 06:53:00,63.4,55.0,30.13,West,268,1.1,0.0,74,0.00,CLR,,0.00,WeatherDisplay:10.37,2013-05-03 11:53:00,
2013-05-03 06:58:00,63.4,55.0,30.13,South,190,0.0,0.0,74,0.00,CLR,,0.00,WeatherDisplay:10.37,2013-05-03 11:58:00,
2013-05-03 07:03:00,63.4,54.6,30.13,WSW,251,1.1,0.0,73,0.00,CLR,,0.00,WeatherDisplay:10.37,2013-05-03 12:03:00,
2013-05-03 07:08:00,63.4,54.6,30.13,WSW,251,1.1,1.1,73,0.00,CLR,,0.00,WeatherDisplay:10.37,2013-05-03 12:08:00,
2013-05-03 07:13:00,63.5,54.7,30.13,SW,226,1.1,1.1,73,0.00,CLR,,0.00,WeatherDisplay:10.37,2013-05-03 12:13:00,
2013-05-03 07:18:00,63.5,54.7,30.13,WSW,245,4.6,4.6,73,0.00,CLR,,0.00,WeatherDisplay:10.37,2013-05-03 12:18:00,
2013-05-03 07:23:00,63.5,54.7,30.13,West,279,1.1,0.0,73,0.00,CLR,,0.00,WeatherDisplay:10.37,2013-05-03 12:23:00,
2013-05-03 07:28:00,63.5,54.3,30.13,SSW,211,3.5,3.5,72,0.00,CLR,,0.00,WeatherDisplay:10.37,2013-05-03 12:28:00,
2013-05-03 07:33:00,63.5,54.7,30.13,SW,236,0.0,0.1,73,0.00,CLR,,0.00,WeatherDisplay:10.37,2013-05-03 12:33:00,
2013-05-03 07:38:00,63.7,54.5,30.13,SW,235,0.0,0.0,72,0.00,CLR,,0.00,WeatherDisplay:10.37,2013-05-03 12:38:00,
2013-05-03 07:43:00,63.7,54.5,30.13,WSW,240,0.0,1.3,72,0.00,CLR,,0.00,WeatherDisplay:10.37,2013-05-03 12:43:00,
2013-05-03 07:48:00,63.9,54.7,30.13,WNW,284,0.0,0.0,72,0.00,CLR,,0.00,WeatherDisplay:10.37,2013-05-03 12:48:00,
2013-05-03 07:53:00,64.2,54.6,30.13,SSW,195,1.1,1.2,71,0.00,CLR,,0.00,WeatherDisplay:10.37,2013-05-03 12:53:00,
2013-05-03 07:58:00,64.7,54.7,30.13,SSE,159,3.5,0.0,70,0.00,CLR,,0.00,WeatherDisplay:10.37,2013-05-03 12:58:00,
2013-05-03 08:03:00,64.8,54.8,30.13,WSW,244,3.5,3.5,70,0.00,CLR,,0.00,WeatherDisplay:10.37,2013-05-03 13:03:00,
2013-05-03 08:08:00,65.0,55.0,30.13,SW,236,3.5,0.0,70,0.00,CLR,,0.00,WeatherDisplay:10.37,2013-05-03 13:08:00,
2013-05-03 08:13:00,65.2,55.2,30.13,NE,39,4.6,4.6,70,0.00,CLR,,0.00,WeatherDisplay:10.37,2013-05-03 13:13:00,
2013-05-03 08:18:00,65.5,55.1,30.13,NE,40,1.1,0.0,69,0.00,CLR,,0.00,WeatherDisplay:10.37,2013-05-03 13:18:00,
2013-05-03 08:23:00,65.8,55.7,30.13,ENE,67,0.0,0.4,70,0.00,CLR,,0.00,WeatherDisplay:10.37,2013-05-03 13:23:00,
2013-05-03 08:28:00,66.0,54.3,30.13,South,179,4.6,0.0,66,0.00,CLR,,0.00,WeatherDisplay:10.37,2013-05-03 13:28:00,
2013-05-03 08:33:00,66.0,54.7,30.13,West,264,0.0,0.0,67,0.00,CLR,,0.00,WeatherDisplay:10.37,2013-05-03 13:33:00,
2013-05-03 08:38:00,66.1,54.0,30.13,ENE,73,4.6,4.6,65,0.00,CLR,,0.00,WeatherDisplay:10.37,2013-05-03 13:38:00,
2013-05-03 08:43:00,66.6,55.3,30.13,WNW,284,1.1,1.5,67,0.00,CLR,,0.00,WeatherDisplay:10.37,2013-05-03 13:43:00,
2013-05-03 08:48:00,66.6,54.9,30.13,SSE,158,4.0,4.0,66,0.00,CLR,,0.00,WeatherDisplay:10.37,2013-05-03 13:48:00,
2013-05-03 08:53:00,66.8,54.2,30.13,SW,215,3.5,3.5,64,0.00,CLR,,0.00,WeatherDisplay:10.37,2013-05-03 13:53:00,
2013-05-03 08:58:00,66.8,54.7,30.13,WSW,242,5.8,5.8,65,0.00,CLR,,0.00,WeatherDisplay:10.37,2013-05-03 13:58:00,
2013-05-03 09:03:00,66.8,55.1,30.13,West,259,3.5,3.5,66,0.00,CLR,,0.00,WeatherDisplay:10.37,2013-05-03 14:03:00,
2013-05-03 09:08:00,66.8,54.2,30.13,NNE,25,3.0,3.0,64,0.00,CLR,,0.00,WeatherDisplay:10.37,2013-05-03 14:08:00,
2013-05-03 09:13:00,66.8,55.1,30.13,East,101,2.0,2.0,66,0.00,CLR,,0.00,WeatherDisplay:10.37,2013-05-03 14:13:00,
2013-05-03 09:18:00,66.6,54.5,30.13,SSE,161,3.5,3.5,65,0.00,CLR,,0.00,WeatherDisplay:10.37,2013-05-03 14:18:00,
2013-05-03 09:23:00,66.4,55.1,30.13,West,262,3.5,3.5,67,0.00,CLR,,0.00,WeatherDisplay:10.37,2013-05-03 14:23:00,
2013-05-03 09:28:00,66.3,54.2,30.13,ENE,57,3.5,3.5,65,0.00,CLR,,0.00,WeatherDisplay:10.37,2013-05-03 14:28:00,
2013-05-03 09:33:00,66.3,54.6,30.13,WSW,252,2.3,2.3,66,0.00,CLR,,0.00,WeatherDisplay:10.37,2013-05-03 14:33:00,
2013-05-03 09:38:00,66.3,54.6,30.13,WSW,244,4.6,4.6,66,0.00,CLR,,0.00,WeatherDisplay:10.37,2013-05-03 14:38:00,
2013-05-03 09:43:00,66.0,54.7,30.13,SSW,202,3.5,3.5,67,0.00,CLR,,0.00,WeatherDisplay:10.37,2013-05-03 14:43:00,
2013-05-03 09:48:00,66.0,55.5,30.13,WSW,257,0.0,0.0,69,0.00,CLR,,0.00,WeatherDisplay:10.37,2013-05-03 14:48:00,
2013-05-03 09:53:00,66.1,55.2,30.13,West,259,3.5,3.5,68,0.00,CLR,,0.00,WeatherDisplay:10.37,2013-05-03 14:53:00,
2013-05-03 09:58:00,66.4,55.1,30.13,ENE,65,3.5,4.2,67,0.00,CLR,,0.00,WeatherDisplay:10.37,2013-05-03 14:58:00,
2013-05-03 10:03:00,66.8,55.1,30.13,South,183,3.5,3.5,66,0.00,CLR,,0.00,WeatherDisplay:10.37,2013-05-03 15:03:00,
2013-05-03 10:08:00,67.1,55.4,30.13,SW,215,3.5,3.5,66,0.00,CLR,,0.00,WeatherDisplay:10.37,2013-05-03 15:08:00,
2013-05-03 10:13:00,67.6,55.8,30.12,SW,217,2.0,2.0,66,0.00,CLR,,0.00,WeatherDisplay:10.37,2013-05-03 15:13:00,
2013-05-03 10:18:00,67.8,55.6,30.12,WSW,253,3.5,0.0,65,0.00,CLR,,0.00,WeatherDisplay:10.37,2013-05-03 15:18:00,
2013-05-03 10:23:00,67.8,55.6,30.12,ESE,105,5.8,5.8,65,0.00,CLR,,0.00,WeatherDisplay:10.37,2013-05-03 15:23:00,
2013-05-03 10:28:00,67.6,55.4,30.12,East,96,1.1,0.0,65,0.00,CLR,,0.00,WeatherDisplay:10.37,2013-05-03 15:28:00,
2013-05-03 10:33:00,67.8,55.2,30.12,SW,227,0.0,0.0,64,0.00,CLR,,0.00,WeatherDisplay:10.37,2013-05-03 15:33:00,
2013-05-03 10:38:00,68.1,55.9,30.12,WSW,245,1.0,1.0,65,0.00,CLR,,0.00,WeatherDisplay:10.37,2013-05-03 15:38:00,
2013-05-03 10:44:00,68.6,55.9,30.12,NNE,30,0.0,0.1,64,0.00,CLR,,0.00,WeatherDisplay:10.37,2013-05-03 15:44:00,
2013-05-03 10:49:00,68.9,56.6,30.12,West,279,1.1,0.0,65,0.00,CLR,,0.00,WeatherDisplay:10.37,2013-05-03 15:49:00,
2013-05-03 10:54:00,68.9,55.3,30.12,WSW,246,9.0,9.0,62,0.00,CLR,,0.00,WeatherDisplay:10.37,2013-05-03 15:54:00,
2013-05-03 10:59:00,68.9,55.3,30.11,SSW,209,3.5,3.5,62,0.00,CLR,,0.00,WeatherDisplay:10.37,2013-05-03 15:59:00,
2013-05-03 11:04:00,69.4,55.4,30.11,West,263,4.0,4.0,61,0.00,CLR,,0.00,WeatherDisplay:10.37,2013-05-03 16:04:00,
2013-05-03 11:09:00,69.6,56.0,30.11,SW,217,4.6,4.6,62,0.00,CLR,,0.00,WeatherDisplay:10.37,2013-05-03 16:09:00,
2013-05-03 11:14:00,70.6,56.9,30.11,WNW,294,3.5,3.5,62,0.00,CLR,,0.00,WeatherDisplay:10.37,2013-05-03 16:14:00,
2013-05-03 11:19:00,71.3,55.8,30.11,SW,225,4.6,4.6,58,0.00,CLR,,0.00,WeatherDisplay:10.37,2013-05-03 16:19:00,
2013-05-03 11:24:00,71.8,56.7,30.10,South,186,10.4,10.4,59,0.00,CLR,,0.00,WeatherDisplay:10.37,2013-05-03 16:24:00,
2013-05-03 11:29:00,71.8,56.2,30.10,WSW,245,5.8,5.8,58,0.00,CLR,,0.00,WeatherDisplay:10.37,2013-05-03 16:29:00,
2013-05-03 11:34:00,72.0,54.9,30.11,NE,34,5.8,5.8,55,0.00,CLR,,0.00,WeatherDisplay:10.37,2013-05-03 16:34:00,
2013-05-03 11:39:00,72.5,56.4,30.10,NW,310,10.4,10.4,57,0.00,CLR,,0.00,WeatherDisplay:10.37,2013-05-03 16:39:00,
2013-05-03 11:44:00,72.7,54.6,30.10,South,169,11.5,11.5,53,0.00,CLR,,0.00,WeatherDisplay:10.37,2013-05-03 16:44:00,
2013-05-03 11:49:00,72.8,55.2,30.10,South,186,4.6,4.6,54,0.00,CLR,,0.00,WeatherDisplay:10.37,2013-05-03 16:49:00,
2013-05-03 11:54:00,73.2,55.6,30.10,ESE,105,3.5,3.5,54,0.00,CLR,,0.00,WeatherDisplay:10.37,2013-05-03 16:54:00,
2013-05-03 11:59:00,72.3,54.2,30.10,WSW,255,10.4,10.4,53,0.00,CLR,,0.00,WeatherDisplay:10.37,2013-05-03 16:59:00,
2013-05-03 12:04:00,71.5,54.5,30.10,NE,40,5.8,5.8,55,0.00,CLR,,0.00,WeatherDisplay:10.37,2013-05-03 17:04:00,
2013-05-03 12:09:00,70.8,53.3,30.10,WSW,239,5.8,5.8,54,0.00,CLR,,0.00,WeatherDisplay:10.37,2013-05-03 17:09:00,
2013-05-03 12:14:00,70.3,54.3,30.10,WNW,297,6.9,6.9,57,0.00,CLR,,0.00,WeatherDisplay:10.37,2013-05-03 17:14:00,
2013-05-03 12:19:00,69.3,53.9,30.10,WSW,242,3.5,3.5,58,0.00,CLR,,0.00,WeatherDisplay:10.37,2013-05-03 17:19:00,
2013-05-03 12:24:00,68.8,52.9,30.09,ESE,111,4.6,4.6,57,0.00,CLR,,0.00,WeatherDisplay:10.37,2013-05-03 17:24:00,
2013-05-03 12:29:00,68.9,54.9,30.09,WSW,246,1.1,1.1,61,0.00,CLR,,0.00,WeatherDisplay:10.37,2013-05-03 17:29:00,
2013-05-03 12:34:00,68.8,53.4,30.09,SW,229,12.7,12.7,58,0.00,CLR,,0.00,WeatherDisplay:10.37,2013-05-03 17:34:00,
2013-05-03 12:39:00,68.6,53.2,30.09,ESE,109,4.0,4.0,58,0.00,CLR,,0.00,WeatherDisplay:10.37,2013-05-03 17:39:00,
2013-05-03 12:44:00,68.6,52.8,30.09,West,271,10.4,10.4,57,0.00,CLR,,0.00,WeatherDisplay:10.37,2013-05-03 17:44:00,
2013-05-03 12:49:00,68.6,53.2,30.09,WSW,241,15.0,15.0,58,0.00,CLR,,0.00,WeatherDisplay:10.37,2013-05-03 17:49:00,
2013-05-03 12:54:00,68.6,52.8,30.09,SW,223,12.7,12.7,57,0.00,CLR,,0.00,WeatherDisplay:10.37,2013-05-03 17:54:00,
2013-05-03 12:59:00,69.3,54.4,30.08,ESE,121,1.1,1.1,59,0.00,CLR,,0.00,WeatherDisplay:10.37,2013-05-03 17:59:00,
2013-05-03 13:04:00,69.9,54.0,30.08,SW,225,9.2,9.2,57,0.00,CLR,,0.00,WeatherDisplay:10.37,2013-05-03 18:04:00,
2013-05-03 13:09:00,70.6,55.1,30.08,ESE,123,4.6,4.6,58,0.00,CLR,,0.00,WeatherDisplay:10.37,2013-05-03 18:09:00,
2013-05-03 13:14:00,70.4,54.0,30.08,NW,318,6.9,6.9,56,0.00,CLR,,0.00,WeatherDisplay:10.37,2013-05-03 18:14:00,
2013-05-03 13:19:00,69.9,54.0,30.08,SW,236,6.9,6.9,57,0.00,CLR,,0.00,WeatherDisplay:10.37,2013-05-03 18:19:00,
2013-05-03 13:24:00,69.4,54.9,30.08,NNE,32,3.5,3.5,60,0.00,CLR,,0.00,WeatherDisplay:10.37,2013-05-03 18:24:00,
2013-05-03 13:29:00,69.3,53.9,30.08,WSW,245,9.2,9.2,58,0.00,CLR,,0.00,WeatherDisplay:10.37,2013-05-03 18:29:00,
2013-05-03 13:34:00,69.3,54.8,30.08,SW,234,4.6,4.6,60,0.00,CLR,,0.00,WeatherDisplay:10.37,2013-05-03 18:34:00,
2013-05-03 13:39:00,69.3,56.2,30.09,SSE,148,3.5,3.5,63,0.00,CLR,,0.00,WeatherDisplay:10.37,2013-05-03 18:39:00,
2013-05-03 13:44:00,68.6,57.2,30.09,SSW,196,1.1,1.1,67,0.00,CLR,,0.00,WeatherDisplay:10.37,2013-05-03 18:44:00,
2013-05-03 13:49:00,67.4,56.1,30.08,East,88,9.2,9.2,67,0.00,CLR,,0.00,WeatherDisplay:10.37,2013-05-03 18:49:00,
2013-05-03 13:54:00,66.6,55.7,30.08,South,169,4.6,4.6,68,0.00,CLR,,0.00,WeatherDisplay:10.37,2013-05-03 18:54:00,
2013-05-03 13:59:00,66.1,55.6,30.08,WSW,242,1.1,1.1,69,0.00,CLR,,0.00,WeatherDisplay:10.37,2013-05-03 18:59:00,
2013-05-03 14:04:00,66.0,55.5,30.08,NNW,342,2.3,2.3,69,0.00,CLR,,0.00,WeatherDisplay:10.37,2013-05-03 19:04:00,
2013-05-03 14:09:00,66.0,56.3,30.08,NNE,22,1.1,1.1,71,0.00,CLR,,0.00,WeatherDisplay:10.37,2013-05-03 19:09:00,
2013-05-03 14:14:00,65.8,55.7,30.08,WSW,258,2.3,2.3,70,0.00,CLR,,0.00,WeatherDisplay:10.37,2013-05-03 19:14:00,
2013-05-03 14:19:00,66.0,55.1,30.08,NNE,24,1.1,1.1,68,0.00,CLR,,0.00,WeatherDisplay:10.37,2013-05-03 19:19:00,
2013-05-03 14:24:00,66.3,55.8,30.08,NNE,26,0.0,0.0,69,0.00,CLR,,0.00,WeatherDisplay:10.37,2013-05-03 19:24:00,
2013-05-03 14:29:00,66.3,55.0,30.08,ESE,122,5.8,5.8,67,0.00,CLR,,0.00,WeatherDisplay:10.37,2013-05-03 19:29:00,
2013-05-03 14:34:00,66.1,55.2,30.08,West,263,3.5,3.5,68,0.00,CLR,,0.00,WeatherDisplay:10.37,2013-05-03 19:34:00,
2013-05-03 14:39:00,65.8,54.9,30.08,WSW,246,3.5,0.0,68,0.00,CLR,,0.00,WeatherDisplay:10.37,2013-05-03 19:39:00,
2013-05-03 14:44:00,65.5,55.1,30.08,West,259,3.5,0.0,69,0.00,CLR,,0.00,WeatherDisplay:10.37,2013-05-03 19:44:00,
2013-05-03 14:49:00,65.3,55.3,30.08,West,263,0.0,0.0,70,0.00,CLR,,0.00,WeatherDisplay:10.37,2013-05-03 19:49:00,
2013-05-03 14:54:00,65.3,56.0,30.08,WNW,287,1.1,0.0,72,0.00,CLR,,0.00,WeatherDisplay:10.37,2013-05-03 19:54:00,
2013-05-03 14:59:00,65.2,55.9,30.08,NW,306,3.5,0.0,72,0.00,CLR,,0.00,WeatherDisplay:10.37,2013-05-03 19:59:00,
2013-05-03 15:04:00,65.0,55.0,30.07,NE,55,0.0,0.0,70,0.00,CLR,,0.00,WeatherDisplay:10.37,2013-05-03 20:04:00,
2013-05-03 15:09:00,65.0,55.4,30.07,NE,56,0.0,0.0,71,0.00,CLR,,0.00,WeatherDisplay:10.37,2013-05-03 20:09:00,
2013-05-03 15:14:00,65.0,55.8,30.07,SSW,198,0.0,0.0,72,0.00,CLR,,0.00,WeatherDisplay:10.37,2013-05-03 20:14:00,
2013-05-03 15:19:00,65.0,55.4,30.06,NNE,22,2.3,0.0,71,0.00,CLR,,0.00,WeatherDisplay:10.37,2013-05-03 20:19:00,
2013-05-03 15:24:00,65.0,55.0,30.06,NNE,25,0.0,0.0,70,0.00,CLR,,0.00,WeatherDisplay:10.37,2013-05-03 20:24:00,
2013-05-03 15:29:00,65.0,55.4,30.06,NNE,25,0.0,0.0,71,0.00,CLR,,0.00,WeatherDisplay:10.37,2013-05-03 20:29:00,
2013-05-03 15:34:00,65.0,55.4,30.06,NE,52,0.0,0.0,71,0.00,CLR,,0.00,WeatherDisplay:10.37,2013-05-03 20:34:00,
2013-05-03 15:39:00,65.0,55.4,30.06,NE,52,0.0,0.0,71,0.00,CLR,,0.00,WeatherDisplay:10.37,2013-05-03 20:39:00,
2013-05-03 15:44:00,65.0,55.4,30.05,NE,51,2.3,0.0,71,0.00,CLR,,0.00,WeatherDisplay:10.37,2013-05-03 20:44:00,
2013-05-03 15:49:00,65.2,54.8,30.05,WSW,256,1.1,1.4,69,0.00,CLR,,0.00,WeatherDisplay:10.37,2013-05-03 20:49:00,
2013-05-03 15:54:00,65.2,54.8,30.05,SE,132,4.0,4.0,69,0.00,CLR,,0.00,WeatherDisplay:10.37,2013-05-03 20:54:00,
2013-05-03 15:59:00,65.3,54.9,30.05,SW,221,0.0,1.2,69,0.00,CLR,,0.00,WeatherDisplay:10.37,2013-05-03 20:59:00,
2013-05-03 16:04:00,65.3,54.9,30.05,NE,51,0.0,0.1,69,0.00,CLR,,0.00,WeatherDisplay:10.37,2013-05-03 21:04:00,
2013-05-03 16:09:00,65.3,54.9,30.05,West,265,2.0,2.0,69,0.00,CLR,,0.00,WeatherDisplay:10.37,2013-05-03 21:09:00,
2013-05-03 16:14:00,65.2,54.8,30.05,WSW,248,2.3,2.3,69,0.00,CLR,,0.00,WeatherDisplay:10.37,2013-05-03 21:14:00,
2013-05-03 16:19:00,65.2,54.8,30.05,SW,232,5.8,5.8,69,0.00,CLR,,0.00,WeatherDisplay:10.37,2013-05-03 21:19:00,
2013-05-03 16:24:00,65.3,54.9,30.05,WSW,246,5.8,0.0,69,0.00,CLR,,0.00,WeatherDisplay:10.37,2013-05-03 21:24:00,
2013-05-03 16:29:00,65.6,55.5,30.05,SE,128,2.3,2.3,70,0.00,CLR,,0.00,WeatherDisplay:10.37,2013-05-03 21:29:00,
2013-05-03 16:34:00,65.6,54.8,30.04,ENE,64,6.9,6.9,68,0.00,CLR,,0.00,WeatherDisplay:10.37,2013-05-03 21:34:00,
2013-05-03 16:39:00,65.8,54.9,30.05,NNW,333,3.5,3.5,68,0.00,CLR,,0.00,WeatherDisplay:10.37,2013-05-03 21:39:00,
2013-05-03 16:44:00,65.6,54.8,30.05,SSW,206,5.8,5.8,68,0.00,CLR,,0.00,WeatherDisplay:10.37,2013-05-03 21:44:00,
2013-05-03 16:49:00,65.5,54.7,30.05,WSW,256,4.6,4.6,68,0.00,CLR,,0.00,WeatherDisplay:10.37,2013-05-03 21:49:00,
2013-05-03 16:54:00,65.3,54.9,30.04,South,184,9.2,9.2,69,0.00,CLR,,0.00,WeatherDisplay:10.37,2013-05-03 21:54:00,
2013-05-03 16:59:00,65.3,54.9,30.05,SW,215,4.6,4.6,69,0.00,CLR,,0.00,WeatherDisplay:10.37,2013-05-03 21:59:00,
2013-05-03 17:04:00,65.3,54.9,30.04,NE,44,1.1,0.0,69,0.00,CLR,,0.00,WeatherDisplay:10.37,2013-05-03 22:04:00,
2013-05-03 17:09:00,65.3,54.9,30.04,SW,224,3.5,3.5,69,0.00,CLR,,0.00,WeatherDisplay:10.37,2013-05-03 22:09:00,
2013-05-03 17:14:00,65.5,55.1,30.04,South,175,3.0,3.0,69,0.00,CLR,,0.00,WeatherDisplay:10.37,2013-05-03 22:14:00,
2013-05-03 17:19:00,65.5,55.5,30.04,WSW,240,2.3,2.3,70,0.00,CLR,,0.00,WeatherDisplay:10.37,2013-05-03 22:19:00,
2013-05-03 17:24:00,65.5,54.7,30.04,WSW,250,1.0,12.0,68,0.00,CLR,,0.00,WeatherDisplay:10.37,2013-05-03 22:24:00,
2013-05-03 17:30:00,65.3,54.9,30.05,WSW,245,4.6,4.6,69,0.00,CLR,,0.00,WeatherDisplay:10.37,2013-05-03 22:30:00,
2013-05-03 17:34:00,65.3,54.1,30.05,West,263,1.0,13.0,67,0.00,CLR,,0.00,WeatherDisplay:10.37,2013-05-03 22:34:00,
2013-05-03 17:40:00,65.2,54.4,30.05,SSE,161,1.1,1.1,68,0.00,CLR,,0.00,WeatherDisplay:10.37,2013-05-03 22:40:00,
2013-05-03 17:45:00,65.2,54.4,30.05,SW,220,0.0,5.0,68,0.00,CLR,,0.00,WeatherDisplay:10.37,2013-05-03 22:45:00,
2013-05-03 17:50:00,65.2,54.4,30.04,ESE,111,3.5,3.5,68,0.00,CLR,,0.00,WeatherDisplay:10.37,2013-05-03 22:50:00,
2013-05-03 17:55:00,65.2,54.0,30.04,WSW,242,1.0,5.0,67,0.00,CLR,,0.00,WeatherDisplay:10.37,2013-05-03 22:55:00,
2013-05-03 18:00:00,65.2,54.0,30.04,WSW,245,1.0,7.0,67,0.00,CLR,,0.00,WeatherDisplay:10.37,2013-05-03 23:00:00,
2013-05-03 18:04:00,65.2,54.0,30.04,SSW,208,2.0,6.0,67,0.00,CLR,,0.00,WeatherDisplay:10.37,2013-05-03 23:04:00,
2013-05-03 18:10:00,65.2,54.0,30.04,West,261,2.0,2.0,67,0.00,CLR,,0.00,WeatherDisplay:10.37,2013-05-03 23:10:00,
2013-05-03 18:15:00,65.2,54.0,30.03,WSW,248,5.8,5.8,67,0.00,CLR,,0.00,WeatherDisplay:10.37,2013-05-03 23:15:00,
2013-05-03 18:20:00,65.0,54.2,30.03,ESE,107,1.1,1.1,68,0.00,CLR,,0.00,WeatherDisplay:10.37,2013-05-03 23:20:00,
2013-05-03 18:25:00,65.0,54.2,30.02,SSW,207,0.0,0.0,68,0.00,CLR,,0.00,WeatherDisplay:10.37,2013-05-03 23:25:00,
2013-05-03 18:30:00,64.8,54.0,30.02,SSW,207,0.0,0.1,68,0.00,CLR,,0.00,WeatherDisplay:10.37,2013-05-03 23:30:00,
2013-05-03 18:35:00,64.8,54.8,30.02,SSW,209,0.0,0.0,70,0.00,CLR,,0.00,WeatherDisplay:10.37,2013-05-03 23:35:00,
2013-05-03 18:40:00,64.8,54.4,30.02,NNE,30,3.5,3.5,69,0.00,CLR,,0.00,WeatherDisplay:10.37,2013-05-03 23:40:00,
2013-05-03 18:45:00,64.7,53.9,30.02,SE,139,2.3,2.3,68,0.00,CLR,,0.00,WeatherDisplay:10.37,2013-05-03 23:45:00,
2013-05-03 18:50:00,64.7,53.9,30.02,NNE,24,5.0,5.0,68,0.00,CLR,,0.00,WeatherDisplay:10.37,2013-05-03 23:50:00,
2013-05-03 18:55:00,64.7,53.9,30.02,ENE,71,0.0,0.0,68,0.00,CLR,,0.00,WeatherDisplay:10.37,2013-05-03 23:55:00,
2013-05-03 19:00:00,64.7,53.9,30.02,West,267,4.0,4.0,68,0.00,CLR,,0.00,WeatherDisplay:10.37,2013-05-04 00:00:00,
2013-05-03 19:05:00,64.7,53.9,30.02,NE,54,2.3,2.3,68,0.00,CLR,,0.00,WeatherDisplay:10.37,2013-05-04 00:05:00,
2013-05-03 19:10:00,64.7,53.9,30.02,NNE,18,1.0,0.0,68,0.00,CLR,,0.00,WeatherDisplay:10.37,2013-05-04 00:10:00,
2013-05-03 19:15:00,64.5,54.1,30.02,NNE,17,0.0,0.0,69,0.00,CLR,,0.00,WeatherDisplay:10.37,2013-05-04 00:15:00,
2013-05-03 19:20:00,64.5,54.1,30.02,NNE,17,0.0,0.0,69,0.00,CLR,,0.00,WeatherDisplay:10.37,2013-05-04 00:20:00,
2013-05-03 19:25:00,64.5,53.3,30.02,SSE,159,3.5,3.5,67,0.00,CLR,,0.00,WeatherDisplay:10.37,2013-05-04 00:25:00,
2013-05-03 19:30:00,64.3,53.5,30.02,SW,218,1.1,0.0,68,0.00,CLR,,0.00,WeatherDisplay:10.37,2013-05-04 00:30:00,
2013-05-03 19:35:00,64.3,53.5,30.02,SW,234,1.1,1.1,68,0.00,CLR,,0.00,WeatherDisplay:10.37,2013-05-04 00:35:00,
2013-05-03 19:40:00,64.3,53.5,30.02,WSW,239,1.1,1.1,68,0.00,CLR,,0.00,WeatherDisplay:10.37,2013-05-04 00:40:00,
2013-05-03 19:45:00,64.3,53.5,30.02,WSW,240,1.0,0.0,68,0.00,CLR,,0.00,WeatherDisplay:10.37,2013-05-04 00:45:00,
2013-05-03 19:50:00,64.3,53.5,30.02,WSW,244,0.0,0.0,68,0.00,CLR,,0.00,WeatherDisplay:10.37,2013-05-04 00:50:00,
2013-05-03 19:55:00,64.3,53.5,30.02,SSW,204,1.1,0.0,68,0.00,CLR,,0.00,WeatherDisplay:10.37,2013-05-04 00:55:00,
2013-05-03 20:00:00,64.3,53.5,30.02,SSW,205,0.0,0.0,68,0.00,CLR,,0.00,WeatherDisplay:10.37,2013-05-04 01:00:00,
2013-05-03 20:05:00,64.3,53.5,30.02,SW,217,0.0,0.0,68,0.00,CLR,,0.00,WeatherDisplay:10.37,2013-05-04 01:05:00,
2013-05-03 20:10:00,64.3,53.9,30.02,SW,223,0.0,0.0,69,0.00,CLR,,0.00,WeatherDisplay:10.37,2013-05-04 01:10:00,
2013-05-03 20:15:00,64.3,53.9,30.02,SW,223,0.0,0.0,69,0.00,CLR,,0.00,WeatherDisplay:10.37,2013-05-04 01:15:00,
2013-05-03 20:20:00,64.2,54.2,30.02,SW,223,1.1,0.0,70,0.00,CLR,,0.00,WeatherDisplay:10.37,2013-05-04 01:20:00,
2013-05-03 20:25:00,64.0,54.4,30.03,WSW,255,0.0,0.0,71,0.00,CLR,,0.00,WeatherDisplay:10.37,2013-05-04 01:25:00,
2013-05-03 20:30:00,64.0,54.0,30.04,SSW,201,1.1,1.1,70,0.00,CLR,,0.00,WeatherDisplay:10.37,2013-05-04 01:30:00,
2013-05-03 20:35:00,64.0,54.0,30.03,SW,236,0.0,0.0,70,0.00,CLR,,0.00,WeatherDisplay:10.37,2013-05-04 01:35:00,
2013-05-03 20:40:00,64.0,54.0,30.04,WSW,245,3.0,3.0,70,0.00,CLR,,0.00,WeatherDisplay:10.37,2013-05-04 01:40:00,
2013-05-03 20:45:00,64.0,54.0,30.04,South,171,1.1,1.1,70,0.00,CLR,,0.00,WeatherDisplay:10.37,2013-05-04 01:45:00,
2013-05-03 20:50:00,64.0,54.0,30.04,East,94,0.0,0.0,70,0.00,CLR,,0.00,WeatherDisplay:10.37,2013-05-04 01:50:00,
2013-05-03 20:55:00,64.0,54.0,30.04,NE,38,2.3,2.3,70,0.00,CLR,,0.00,WeatherDisplay:10.37,2013-05-04 01:55:00,
2013-05-03 21:00:00,64.2,54.2,30.05,WSW,245,2.3,2.3,70,0.00,CLR,,0.00,WeatherDisplay:10.37,2013-05-04 02:00:00,
2013-05-03 21:05:00,64.0,54.8,30.05,SE,131,3.5,3.5,72,0.00,CLR,,0.00,WeatherDisplay:10.37,2013-05-04 02:05:00,
2013-05-03 21:10:00,63.9,55.1,30.05,ENE,73,1.1,0.0,73,0.00,CLR,,0.00,WeatherDisplay:10.37,2013-05-04 02:10:00,
2013-05-03 21:15:00,63.5,55.4,30.05,ENE,73,0.0,0.0,75,0.00,CLR,,0.00,WeatherDisplay:10.37,2013-05-04 02:15:00,
2013-05-03 21:20:00,63.2,55.5,30.05,ENE,73,0.0,0.0,76,0.00,CLR,,0.00,WeatherDisplay:10.37,2013-05-04 02:20:00,
2013-05-03 21:25:00,63.1,55.0,30.05,SSW,207,3.5,3.5,75,0.00,CLR,,0.00,WeatherDisplay:10.37,2013-05-04 02:25:00,
2013-05-03 21:30:00,62.9,55.2,30.05,North,350,1.1,1.1,76,0.00,CLR,,0.00,WeatherDisplay:10.37,2013-05-04 02:30:00,
2013-05-03 21:35:00,62.7,54.7,30.05,SW,219,0.0,0.0,75,0.00,CLR,,0.00,WeatherDisplay:10.37,2013-05-04 02:35:00,
2013-05-03 21:40:00,62.7,55.0,30.04,SW,222,0.0,0.0,76,0.00,CLR,,0.00,WeatherDisplay:10.37,2013-05-04 02:40:00,
2013-05-03 21:45:00,62.7,55.0,30.04,WSW,250,2.0,2.0,76,0.00,CLR,,0.00,WeatherDisplay:10.37,2013-05-04 02:45:00,
2013-05-03 21:50:00,62.6,54.9,30.04,WSW,257,0.0,0.0,76,0.00,CLR,,0.00,WeatherDisplay:10.37,2013-05-04 02:50:00,
2013-05-03 21:55:00,62.6,54.6,30.04,West,259,0.0,0.0,75,0.00,CLR,,0.00,WeatherDisplay:10.37,2013-05-04 02:55:00,
2013-05-03 22:00:00,62.6,54.9,30.04,West,259,0.0,0.0,76,0.00,CLR,,0.00,WeatherDisplay:10.37,2013-05-04 03:00:00,
2013-05-03 22:05:00,62.6,54.6,30.03,West,266,1.1,1.1,75,0.00,CLR,,0.00,WeatherDisplay:10.37,2013-05-04 03:05:00,
2013-05-03 22:10:00,62.6,54.9,30.03,West,267,0.0,0.0,76,0.00,CLR,,0.00,WeatherDisplay:10.37,2013-05-04 03:10:00,
2013-05-03 22:15:00,62.6,54.9,30.03,West,267,0.0,0.0,76,0.00,CLR,,0.00,WeatherDisplay:10.37,2013-05-04 03:15:00,
2013-05-03 22:20:00,62.6,54.6,30.03,West,274,3.5,3.5,75,0.00,CLR,,0.00,WeatherDisplay:10.37,2013-05-04 03:20:00,
2013-05-03 22:25:00,62.6,54.6,30.03,West,274,0.0,0.1,75,0.00,CLR,,0.00,WeatherDisplay:10.37,2013-05-04 03:25:00,
2013-05-03 22:30:00,62.7,54.7,30.03,West,274,1.1,1.1,75,0.00,CLR,,0.00,WeatherDisplay:10.37,2013-05-04 03:30:00,
2013-05-03 22:35:00,62.7,54.7,30.03,West,274,0.0,0.0,75,0.00,CLR,,0.00,WeatherDisplay:10.37,2013-05-04 03:35:00,
2013-05-03 22:40:00,62.9,54.1,30.02,SW,224,2.3,2.3,73,0.00,CLR,,0.00,WeatherDisplay:10.37,2013-05-04 03:40:00,
2013-05-03 22:45:00,62.9,54.1,30.02,South,182,0.0,0.0,73,0.00,CLR,,0.00,WeatherDisplay:10.37,2013-05-04 03:45:00,
2013-05-03 22:50:00,63.1,54.3,30.02,East,79,3.5,3.5,73,0.00,CLR,,0.00,WeatherDisplay:10.37,2013-05-04 03:50:00,
2013-05-03 22:55:00,63.1,53.9,30.01,NNW,343,3.5,3.5,72,0.00,CLR,,0.00,WeatherDisplay:10.37,2013-05-04 03:55:00,
2013-05-03 23:00:00,63.1,54.3,30.01,WNW,286,3.5,3.5,73,0.00,CLR,,0.00,WeatherDisplay:10.37,2013-05-04 04:00:00,
2013-05-03 23:01:00,63.1,54.7,30.01,NNE,15,3.5,3.5,74,0.00,CLR,,0.00,WeatherDisplay:10.37,2013-05-04 04:01:00,
2013-05-03 23:03:00,63.1,54.7,30.01,NNE,15,1.1,0.0,74,0.00,CLR,,0.00,WeatherDisplay:10.37,2013-05-04 04:03:00,
2013-05-03 23:08:00,62.7,54.7,30.00,NNW,340,3.5,3.5,75,0.00,CLR,,0.00,WeatherDisplay:10.37,2013-05-04 04:08:00,
2013-05-03 23:13:00,62.4,54.7,30.00,North,5,4.6,4.6,76,0.00,CLR,,0.00,WeatherDisplay:10.37,2013-05-04 04:13:00,
2013-05-03 23:18:00,62.1,55.2,30.00,WSW,247,1.1,0.0,78,0.00,CLR,,0.00,WeatherDisplay:10.37,2013-05-04 04:18:00,
2013-05-03 23:23:00,61.6,55.4,30.00,SW,228,4.6,4.6,80,0.00,CLR,,0.00,WeatherDisplay:10.37,2013-05-04 04:23:00,
2013-05-03 23:28:00,61.2,55.3,30.01,WSW,257,0.0,0.0,81,0.00,CLR,,0.00,WeatherDisplay:10.37,2013-05-04 04:28:00,
2013-05-03 23:33:00,61.0,54.8,30.00,ESE,119,4.6,4.6,80,0.00,CLR,,0.00,WeatherDisplay:10.37,2013-05-04 04:33:00,
2013-05-03 23:38:00,60.9,55.0,30.00,North,355,1.1,1.1,81,0.00,CLR,,0.00,WeatherDisplay:10.37,2013-05-04 04:38:00,
2013-05-03 23:43:00,60.5,55.6,30.00,NE,48,3.5,3.5,84,0.00,CLR,,0.00,WeatherDisplay:10.37,2013-05-04 04:43:00,
2013-05-03 23:48:00,60.2,55.0,30.00,NNE,30,0.0,0.0,83,0.00,CLR,,0.00,WeatherDisplay:10.37,2013-05-04 04:48:00,
2013-05-03 23:53:00,59.9,55.1,30.00,WNW,298,4.0,4.0,84,0.00,CLR,,0.00,WeatherDisplay:10.37,2013-05-04 04:53:00,
2013-05-03 23:58:00,59.9,54.7,30.00,SW,230,1.1,0.0,83,0.00,CLR,,0.00,WeatherDisplay:10.37,2013-05-04 04:58:00,